createdAt,value
2018-09-14T00:02:00.598Z,19.07
2018-09-14T00:04:29.054Z,19.02
2018-09-14T00:06:57.756Z,18.99
2018-09-14T00:09:25.946Z,18.94
2018-09-14T00:11:54.136Z,18.93
2018-09-14T00:14:22.322Z,18.95
2018-09-14T00:16:50.756Z,18.93
2018-09-14T00:19:19.026Z,18.92
2018-09-14T00:21:47.226Z,18.87
2018-09-14T00:24:15.412Z,18.83
2018-09-14T00:26:43.894Z,18.74
2018-09-14T00:29:12.122Z,18.70
2018-09-14T00:31:40.406Z,18.61
2018-09-14T00:34:08.742Z,18.55
2018-09-14T00:36:36.987Z,18.42
2018-09-14T00:39:07.661Z,18.43
2018-09-14T00:41:35.869Z,18.33
2018-09-14T00:44:04.057Z,18.34
2018-09-14T00:46:32.365Z,18.29
2018-09-14T00:49:00.729Z,18.29
2018-09-14T00:51:29.329Z,18.25
2018-09-14T00:53:57.706Z,18.27
2018-09-14T00:56:25.969Z,18.26
2018-09-14T00:58:54.214Z,18.24
2018-09-14T01:01:22.473Z,18.27
2018-09-14T01:03:50.657Z,18.22
2018-09-14T01:06:18.832Z,18.21
2018-09-14T01:08:47.027Z,18.17
2018-09-14T01:11:15.417Z,18.16
2018-09-14T01:13:43.654Z,18.18
2018-09-14T01:16:11.828Z,18.18
2018-09-14T01:18:40.047Z,18.11
2018-09-14T01:21:08.571Z,18.12
2018-09-14T01:23:36.756Z,18.08
2018-09-14T01:26:05.246Z,18.04
2018-09-14T01:28:33.469Z,17.94
2018-09-14T01:31:01.889Z,17.90
2018-09-14T01:33:30.415Z,17.94
2018-09-14T01:36:04.151Z,17.93
2018-09-14T01:38:32.481Z,17.94
2018-09-14T01:41:00.661Z,17.93
2018-09-14T01:43:28.969Z,17.91
2018-09-14T01:45:57.195Z,17.92
2018-09-14T01:48:25.417Z,17.92
2018-09-14T01:50:53.787Z,17.92
2018-09-14T01:53:21.964Z,17.96
2018-09-14T01:55:50.458Z,17.90
2018-09-14T01:58:18.818Z,17.92
2018-09-14T02:00:47.085Z,17.89
2018-09-14T02:03:15.670Z,17.85
2018-09-14T02:05:44.640Z,17.86
2018-09-14T02:08:12.826Z,17.80
2018-09-14T02:10:41.072Z,17.83
2018-09-14T02:13:09.244Z,17.77
2018-09-14T02:15:37.420Z,17.77
2018-09-14T02:18:05.616Z,17.68
2018-09-14T02:20:33.870Z,17.66
2018-09-14T02:23:02.056Z,17.62
2018-09-14T02:25:30.855Z,17.63
2018-09-14T02:27:59.008Z,17.57
2018-09-14T02:30:27.176Z,17.59
2018-09-14T02:32:55.430Z,17.47
2018-09-14T02:35:25.132Z,17.53
2018-09-14T02:37:53.357Z,17.50
2018-09-14T02:40:21.550Z,17.54
2018-09-14T02:42:49.731Z,17.43
2018-09-14T02:45:18.946Z,17.36
2018-09-14T02:47:47.126Z,17.46
2018-09-14T02:50:15.329Z,17.40
2018-09-14T02:52:43.633Z,17.41
2018-09-14T02:55:12.101Z,17.37
2018-09-14T02:57:40.283Z,17.30
2018-09-14T03:00:08.655Z,17.29
2018-09-14T03:02:36.745Z,17.19
2018-09-14T03:05:05.320Z,17.11
2018-09-14T03:07:33.825Z,17.09
2018-09-14T03:10:02.075Z,17.04
2018-09-14T03:12:30.342Z,17.02
2018-09-14T03:14:58.785Z,16.95
2018-09-14T03:17:27.009Z,16.92
2018-09-14T03:19:55.270Z,16.82
2018-09-14T03:22:23.682Z,16.84
2018-09-14T03:24:51.854Z,16.82
2018-09-14T03:27:20.034Z,16.76
2018-09-14T03:29:48.222Z,16.73
2018-09-14T03:32:16.674Z,16.73
2018-09-14T03:34:44.813Z,16.69
2018-09-14T03:37:13.026Z,16.61
2018-09-14T03:39:41.262Z,16.62
2018-09-14T03:42:09.474Z,16.58
2018-09-14T03:44:37.987Z,16.60
2018-09-14T03:47:06.273Z,16.61
2018-09-14T03:49:34.478Z,16.53
2018-09-14T03:52:02.731Z,16.50
2018-09-14T03:54:31.116Z,16.44
2018-09-14T03:57:01.953Z,16.41
2018-09-14T03:59:30.146Z,16.40
2018-09-14T04:01:59.369Z,16.34
2018-09-14T04:04:27.561Z,16.30
2018-09-14T04:06:55.728Z,16.30
2018-09-14T04:09:23.905Z,16.18
2018-09-14T04:11:52.087Z,16.21
2018-09-14T04:14:20.257Z,16.22
2018-09-14T04:16:48.482Z,16.11
2018-09-14T04:19:16.683Z,16.04
2018-09-14T04:21:45.145Z,16.01
2018-09-14T04:24:13.432Z,15.85
2018-09-14T04:26:41.621Z,15.87
2018-09-14T04:29:09.877Z,15.86
2018-09-14T04:31:38.033Z,15.81
2018-09-14T04:34:06.217Z,15.72
2018-09-14T04:36:34.388Z,15.78
2018-09-14T04:39:02.559Z,15.77
2018-09-14T04:41:30.724Z,15.71
2018-09-14T04:43:58.896Z,15.94
2018-09-14T04:46:27.085Z,15.62
2018-09-14T04:48:55.264Z,15.56
2018-09-14T04:51:23.447Z,15.54
2018-09-14T04:53:51.660Z,15.56
2018-09-14T04:56:19.834Z,15.54
2018-09-14T04:58:48.016Z,15.51
2018-09-14T05:01:16.177Z,15.59
2018-09-14T05:03:44.426Z,15.48
2018-09-14T05:06:12.683Z,15.52
2018-09-14T05:08:40.865Z,15.51
2018-09-14T05:11:09.053Z,15.44
2018-09-14T05:13:37.297Z,15.39
2018-09-14T05:16:05.590Z,15.46
2018-09-14T05:18:33.887Z,15.44
2018-09-14T05:21:02.160Z,15.41
2018-09-14T05:23:30.421Z,15.46
2018-09-14T05:25:58.715Z,15.46
2018-09-14T05:28:26.883Z,15.41
2018-09-14T05:30:55.138Z,15.38
2018-09-14T05:33:23.668Z,15.40
2018-09-14T05:35:51.861Z,15.42
2018-09-14T05:38:20.114Z,15.38
2018-09-14T05:40:48.295Z,15.39
2018-09-14T05:43:16.485Z,15.44
2018-09-14T05:45:44.729Z,17.72
2018-09-14T05:48:12.947Z,17.30
2018-09-14T05:50:41.166Z,17.32
2018-09-14T05:53:09.340Z,17.09
2018-09-14T05:55:37.604Z,17.29
2018-09-14T05:58:06.047Z,17.17
2018-09-14T06:00:34.253Z,17.25
2018-09-14T06:03:02.432Z,16.90
2018-09-14T06:05:30.601Z,16.93
2018-09-14T06:07:58.874Z,17.08
2018-09-14T06:10:27.094Z,16.86
2018-09-14T06:12:55.272Z,17.24
2018-09-14T06:15:23.448Z,16.97
2018-09-14T06:17:51.680Z,16.90
2018-09-14T06:20:19.952Z,17.07
2018-09-14T06:22:48.142Z,17.06
2018-09-14T06:25:16.313Z,17.25
2018-09-14T06:27:44.840Z,17.28
2018-09-14T06:30:13.078Z,17.28
2018-09-14T06:32:41.265Z,17.23
2018-09-14T06:35:10.378Z,17.08
2018-09-14T06:37:38.870Z,17.20
2018-09-14T06:40:07.094Z,17.19
2018-09-14T06:42:35.358Z,16.97
2018-09-14T06:45:03.560Z,16.80
2018-09-14T06:47:31.820Z,16.61
2018-09-14T06:50:00.285Z,17.20
2018-09-14T06:52:28.478Z,16.86
2018-09-14T06:54:56.877Z,16.68
2018-09-14T06:57:25.129Z,16.73
2018-09-14T06:59:53.301Z,16.57
2018-09-14T07:02:21.581Z,16.52
2018-09-14T07:04:49.781Z,16.45
2018-09-14T07:07:17.952Z,16.66
2018-09-14T07:09:46.208Z,16.60
2018-09-14T07:12:14.467Z,16.71
2018-09-14T07:14:42.742Z,16.59
2018-09-14T07:17:11.032Z,17.10
2018-09-14T07:19:39.390Z,16.63
2018-09-14T07:22:07.603Z,16.92
2018-09-14T07:24:35.951Z,16.87
2018-09-14T07:27:04.124Z,16.71
2018-09-14T07:29:32.304Z,16.82
2018-09-14T07:32:00.517Z,16.96
2018-09-14T07:34:28.739Z,17.56
2018-09-14T07:36:56.939Z,17.75
2018-09-14T07:39:25.137Z,17.12
2018-09-14T07:41:53.371Z,16.70
2018-09-14T07:44:21.577Z,17.18
2018-09-14T07:46:49.819Z,17.06
2018-09-14T07:49:18.049Z,17.20
2018-09-14T07:51:46.273Z,17.20
2018-09-14T07:54:14.469Z,17.39
2018-09-14T07:56:42.725Z,17.38
2018-09-14T07:59:10.893Z,17.20
2018-09-14T08:01:39.085Z,17.46
2018-09-14T08:04:07.269Z,17.36
2018-09-14T08:06:35.537Z,17.32
2018-09-14T08:09:05.247Z,17.07
2018-09-14T08:11:33.513Z,17.44
2018-09-14T08:14:02.111Z,17.70
2018-09-14T08:16:30.384Z,17.53
2018-09-14T08:18:58.623Z,17.82
2018-09-14T08:21:26.902Z,17.40
2018-09-14T08:23:55.023Z,17.73
2018-09-14T08:26:23.270Z,17.63
2018-09-14T08:28:51.484Z,18.04
2018-09-14T08:31:19.930Z,18.19
2018-09-14T08:33:48.194Z,18.17
2018-09-14T08:36:16.680Z,18.00
2018-09-14T08:38:44.886Z,17.80
2018-09-14T08:41:13.061Z,17.90
2018-09-14T08:43:41.232Z,17.85
2018-09-14T08:46:10.217Z,17.76
2018-09-14T08:48:38.470Z,17.81
2018-09-14T08:51:07.784Z,17.84
2018-09-14T08:53:36.050Z,18.04
2018-09-14T08:56:04.251Z,17.86
2018-09-14T08:58:32.511Z,17.82
2018-09-14T09:01:00.871Z,17.95
2018-09-14T09:03:29.057Z,18.01
2018-09-14T09:05:57.331Z,18.09
2018-09-14T09:08:25.625Z,18.34
2018-09-14T09:10:53.811Z,18.36
2018-09-14T09:13:22.309Z,18.40
2018-09-14T09:15:50.456Z,18.53
2018-09-14T09:18:18.701Z,18.67
2018-09-14T09:20:47.192Z,18.74
2018-09-14T09:23:15.418Z,18.52
2018-09-14T09:25:43.578Z,18.65
2018-09-14T09:28:11.810Z,18.68
2018-09-14T09:30:40.004Z,19.06
2018-09-14T09:33:08.189Z,19.20
2018-09-14T09:35:36.375Z,19.28
2018-09-14T09:38:04.639Z,19.39
2018-09-14T09:40:32.881Z,19.58
2018-09-14T09:43:01.084Z,19.13
2018-09-14T09:45:29.351Z,19.38
2018-09-14T09:47:57.597Z,19.84
2018-09-14T09:50:25.772Z,20.31
2018-09-14T09:52:54.005Z,20.42
2018-09-14T09:55:22.192Z,20.81
2018-09-14T09:57:50.375Z,20.95
2018-09-14T10:00:24.165Z,20.72
2018-09-14T10:02:57.764Z,21.13
2018-09-14T10:05:31.363Z,20.80
2018-09-14T10:07:59.524Z,20.83
2018-09-14T10:10:27.996Z,20.91
2018-09-14T10:13:02.804Z,20.75
2018-09-14T10:15:30.992Z,20.43
2018-09-14T10:17:59.175Z,21.08
2018-09-14T10:20:27.424Z,21.60
2018-09-14T10:22:55.614Z,21.66
2018-09-14T10:25:23.870Z,22.25
2018-09-14T10:27:52.102Z,22.30
2018-09-14T10:30:20.326Z,22.48
2018-09-14T10:32:48.498Z,22.46
2018-09-14T10:35:16.957Z,22.60
2018-09-14T10:37:45.149Z,21.98
2018-09-14T10:40:13.382Z,21.43
2018-09-14T10:42:41.664Z,22.00
2018-09-14T10:45:09.884Z,22.92
2018-09-14T10:47:38.010Z,22.79
2018-09-14T10:50:06.228Z,23.11
2018-09-14T10:52:34.705Z,23.39
2018-09-14T10:55:02.877Z,23.89
2018-09-14T10:57:31.061Z,24.08
2018-09-14T10:59:59.469Z,25.95
2018-09-14T11:02:27.708Z,25.49
2018-09-14T11:04:56.172Z,26.30
2018-09-14T11:07:24.636Z,24.81
2018-09-14T11:09:52.878Z,25.81
2018-09-14T11:12:21.202Z,23.50
2018-09-14T11:14:49.701Z,23.98
2018-09-14T11:17:17.876Z,23.20
2018-09-14T11:19:46.068Z,23.92
2018-09-14T11:22:14.266Z,23.56
2018-09-14T11:24:42.612Z,23.80
2018-09-14T11:27:10.690Z,24.02
2018-09-14T11:29:38.970Z,23.90
2018-09-14T11:32:07.226Z,24.36
2018-09-14T11:34:35.440Z,24.69
2018-09-14T11:37:03.698Z,26.17
2018-09-14T11:39:31.877Z,24.94
2018-09-14T11:42:00.158Z,23.90
2018-09-14T11:44:28.436Z,24.07
2018-09-14T11:46:56.689Z,24.45
2018-09-14T11:49:24.892Z,24.59
2018-09-14T11:51:53.103Z,24.45
2018-09-14T11:54:21.373Z,24.21
2018-09-14T11:56:49.578Z,23.97
2018-09-14T11:59:17.769Z,25.11
2018-09-14T12:01:45.987Z,25.73
2018-09-14T12:04:14.200Z,26.04
2018-09-14T12:06:42.385Z,24.60
2018-09-14T12:09:11.739Z,24.64
2018-09-14T12:11:40.521Z,25.07
2018-09-14T12:14:09.230Z,24.60
2018-09-14T12:16:37.450Z,25.14
2018-09-14T12:19:05.641Z,24.57
2018-09-14T12:21:33.820Z,24.57
2018-09-14T12:24:02.000Z,24.54
2018-09-14T12:26:30.253Z,24.75
2018-09-14T12:28:58.841Z,25.43
2018-09-14T12:31:27.108Z,26.37
2018-09-14T12:33:55.424Z,29.39
2018-09-14T12:36:23.652Z,27.07
2018-09-14T12:38:51.926Z,26.84
2018-09-14T12:41:20.212Z,29.13
2018-09-14T12:43:48.472Z,27.83
2018-09-14T12:46:16.748Z,26.76
2018-09-14T12:48:45.070Z,27.23
2018-09-14T12:51:13.303Z,27.28
2018-09-14T12:53:41.498Z,24.78
2018-09-14T12:56:09.850Z,27.65
2018-09-14T12:58:37.986Z,26.34
2018-09-14T13:01:06.380Z,25.69
2018-09-14T13:03:34.633Z,24.73
2018-09-14T13:06:02.910Z,25.28
2018-09-14T13:08:31.130Z,23.72
2018-09-14T13:10:59.329Z,24.16
2018-09-14T13:13:27.809Z,23.85
2018-09-14T13:15:56.337Z,24.04
2018-09-14T13:18:24.547Z,21.95
2018-09-14T13:20:52.885Z,23.68
2018-09-14T13:23:21.041Z,23.05
2018-09-14T13:25:49.292Z,23.46
2018-09-14T13:28:17.776Z,23.82
2018-09-14T13:30:46.085Z,23.19
2018-09-14T13:33:14.276Z,23.26
2018-09-14T13:35:42.723Z,23.59
2018-09-14T13:38:10.957Z,24.40
2018-09-14T13:40:39.831Z,26.02
2018-09-14T13:43:07.996Z,27.47
2018-09-14T13:45:36.200Z,34.46
2018-09-14T13:48:04.388Z,33.59
2018-09-14T13:50:32.652Z,31.82
2018-09-14T13:53:01.031Z,28.42
2018-09-14T13:55:29.220Z,27.55
2018-09-14T13:57:57.810Z,28.85
2018-09-14T14:00:26.374Z,31.34
2018-09-14T14:02:54.586Z,26.41
2018-09-14T14:05:22.779Z,24.87
2018-09-14T14:07:50.962Z,26.30
2018-09-14T14:10:19.194Z,24.62
2018-09-14T14:12:47.353Z,24.91
2018-09-14T14:15:16.094Z,23.73
2018-09-14T14:17:45.215Z,29.57
2018-09-14T14:20:13.790Z,32.83
2018-09-14T14:22:42.020Z,32.97
2018-09-14T14:25:10.325Z,28.12
2018-09-14T14:27:38.543Z,32.28
2018-09-14T14:30:06.925Z,32.10
2018-09-14T14:32:35.129Z,31.23
2018-09-14T14:35:03.849Z,33.93
2018-09-14T14:37:32.081Z,33.10
2018-09-14T14:40:00.546Z,27.02
2018-09-14T14:42:28.729Z,27.23
2018-09-14T14:44:57.290Z,30.54
2018-09-14T14:47:25.527Z,32.07
2018-09-14T14:49:53.729Z,27.28
2018-09-14T14:52:21.924Z,28.51
2018-09-14T14:54:50.141Z,25.29
2018-09-14T14:57:18.378Z,24.79
2018-09-14T14:59:46.602Z,25.15
2018-09-14T15:02:14.881Z,25.03
2018-09-14T15:04:43.054Z,24.57
2018-09-14T15:07:11.301Z,23.98
2018-09-14T15:09:39.546Z,23.79
2018-09-14T15:12:07.733Z,23.95
2018-09-14T15:14:35.925Z,23.83
2018-09-14T15:17:04.480Z,23.51
2018-09-14T15:19:32.762Z,22.36
2018-09-14T15:22:00.943Z,23.40
2018-09-14T15:24:29.225Z,22.17
2018-09-14T15:26:57.384Z,22.05
2018-09-14T15:29:25.673Z,22.89
2018-09-14T15:31:53.955Z,22.97
2018-09-14T15:34:22.205Z,23.00
2018-09-14T15:36:50.599Z,22.39
2018-09-14T15:39:18.998Z,22.71
2018-09-14T15:41:47.152Z,22.39
2018-09-14T15:44:15.325Z,22.65
2018-09-14T15:46:43.586Z,22.74
2018-09-14T15:49:11.983Z,22.83
2018-09-14T15:51:40.233Z,22.93
2018-09-14T15:54:08.672Z,22.64
2018-09-14T15:56:36.878Z,22.40
2018-09-14T15:59:05.167Z,22.58
2018-09-14T16:01:33.362Z,22.51
2018-09-14T16:04:01.573Z,21.48
2018-09-14T16:06:29.789Z,22.32
2018-09-14T16:08:58.076Z,21.90
2018-09-14T16:11:26.351Z,21.78
2018-09-14T16:13:54.614Z,21.90
2018-09-14T16:16:23.144Z,22.03
2018-09-14T16:18:51.372Z,21.88
2018-09-14T16:21:19.546Z,21.42
2018-09-14T16:23:47.749Z,21.53
2018-09-14T16:26:16.078Z,21.56
2018-09-14T16:28:44.278Z,21.22
2018-09-14T16:31:12.457Z,21.22
2018-09-14T16:33:40.701Z,21.02
2018-09-14T16:36:08.897Z,21.01
2018-09-14T16:38:37.099Z,20.69
2018-09-14T16:41:05.363Z,20.74
2018-09-14T16:43:33.651Z,20.63
2018-09-14T16:46:01.928Z,20.62
2018-09-14T16:48:30.184Z,20.36
2018-09-14T16:50:58.511Z,20.23
2018-09-14T16:53:26.983Z,20.29
2018-09-14T16:55:55.208Z,20.31
2018-09-14T16:58:23.385Z,20.16
2018-09-14T17:00:51.891Z,20.18
2018-09-14T17:03:20.061Z,20.25
2018-09-14T17:05:48.242Z,20.09
2018-09-14T17:08:16.549Z,19.97
2018-09-14T17:10:44.750Z,20.04
2018-09-14T17:13:12.974Z,19.99
2018-09-14T17:15:41.262Z,19.95
2018-09-14T17:18:09.440Z,19.84
2018-09-14T17:20:37.878Z,19.72
2018-09-14T17:23:06.216Z,19.72
2018-09-14T17:25:34.438Z,19.86
2018-09-14T17:28:02.621Z,19.92
2018-09-14T17:30:30.898Z,19.95
2018-09-14T17:32:59.173Z,19.78
2018-09-14T17:35:27.366Z,19.57
2018-09-14T17:37:55.629Z,19.58
2018-09-14T17:40:23.878Z,19.45
2018-09-14T17:42:52.058Z,19.50
2018-09-14T17:45:20.294Z,19.54
2018-09-14T17:47:48.719Z,19.51
2018-09-14T17:50:16.901Z,19.31
2018-09-14T17:52:45.191Z,19.15
2018-09-14T17:55:13.461Z,19.03
2018-09-14T17:57:41.735Z,19.06
2018-09-14T18:00:10.073Z,19.24
2018-09-14T18:02:38.264Z,19.12
2018-09-14T18:05:06.552Z,19.15
2018-09-14T18:07:34.748Z,19.19
2018-09-14T18:10:02.954Z,19.18
2018-09-14T18:12:31.130Z,19.07
2018-09-14T18:14:59.332Z,19.03
2018-09-14T18:17:27.626Z,19.03
2018-09-14T18:19:55.814Z,19.10
2018-09-14T18:22:24.080Z,19.09
2018-09-14T18:24:52.274Z,19.16
2018-09-14T18:27:20.589Z,19.05
2018-09-14T18:29:48.810Z,19.01
2018-09-14T18:32:17.078Z,18.88
2018-09-14T18:34:45.350Z,18.79
2018-09-14T18:37:13.672Z,18.72
2018-09-14T18:39:41.907Z,18.71
2018-09-14T18:42:10.130Z,18.73
2018-09-14T18:44:38.348Z,18.69
2018-09-14T18:47:06.529Z,18.67
2018-09-14T18:49:34.822Z,18.55
2018-09-14T18:52:03.024Z,18.57
2018-09-14T18:54:31.202Z,18.48
2018-09-14T18:56:59.733Z,18.54
2018-09-14T18:59:27.941Z,18.57
2018-09-14T19:01:56.207Z,18.55
2018-09-14T19:04:24.457Z,18.55
2018-09-14T19:06:52.923Z,18.57
2018-09-14T19:09:21.109Z,18.57
2018-09-14T19:11:49.413Z,18.49
2018-09-14T19:14:17.993Z,18.47
2018-09-14T19:16:46.273Z,18.48
2018-09-14T19:19:14.672Z,18.57
2018-09-14T19:21:42.927Z,18.33
2018-09-14T19:24:11.188Z,18.43
2018-09-14T19:26:39.373Z,18.42
2018-09-14T19:29:07.582Z,18.54
2018-09-14T19:31:36.592Z,18.61
2018-09-14T19:34:04.818Z,18.48
2018-09-14T19:36:33.338Z,18.52
2018-09-14T19:39:01.668Z,18.50
2018-09-14T19:41:29.946Z,18.43
2018-09-14T19:43:58.224Z,18.48
2018-09-14T19:46:26.465Z,18.46
2018-09-14T19:48:54.643Z,18.32
2018-09-14T19:51:22.884Z,18.47
2018-09-14T19:53:51.090Z,18.52
2018-09-14T19:56:19.289Z,18.51
2018-09-14T19:58:47.836Z,18.48
2018-09-14T20:01:16.317Z,18.50
2018-09-14T20:03:44.521Z,18.55
2018-09-14T20:06:12.782Z,18.50
2018-09-14T20:08:40.927Z,18.46
2018-09-14T20:11:09.363Z,18.41
2018-09-14T20:13:37.581Z,18.29
2018-09-14T20:16:05.765Z,18.27
2018-09-14T20:18:33.959Z,18.20
2018-09-14T20:21:02.164Z,18.03
2018-09-14T20:23:30.439Z,18.02
2018-09-14T20:25:58.615Z,18.11
2018-09-14T20:28:26.885Z,18.10
2018-09-14T20:30:55.073Z,18.09
2018-09-14T20:33:23.326Z,18.07
2018-09-14T20:35:51.520Z,18.05
2018-09-14T20:38:19.803Z,17.98
2018-09-14T20:40:48.058Z,17.87
2018-09-14T20:43:16.262Z,17.81
2018-09-14T20:45:44.502Z,17.85
2018-09-14T20:48:12.698Z,17.81
2018-09-14T20:50:41.023Z,17.89
2018-09-14T20:53:09.204Z,17.94
2018-09-14T20:55:37.429Z,17.87
2018-09-14T20:58:05.696Z,17.93
2018-09-14T21:00:33.886Z,17.87
2018-09-14T21:03:02.068Z,17.90
2018-09-14T21:05:30.317Z,17.85
2018-09-14T21:07:58.501Z,17.93
2018-09-14T21:10:26.750Z,18.01
2018-09-14T21:12:54.953Z,18.08
2018-09-14T21:15:23.141Z,18.10
2018-09-14T21:17:51.309Z,18.04
2018-09-14T21:20:19.597Z,18.19
2018-09-14T21:22:47.903Z,18.18
2018-09-14T21:25:16.059Z,18.11
2018-09-14T21:27:44.258Z,17.99
2018-09-14T21:30:12.466Z,17.86
2018-09-14T21:32:40.660Z,17.77
2018-09-14T21:35:09.192Z,17.57
2018-09-14T21:37:37.384Z,17.51
2018-09-14T21:40:05.878Z,17.39
2018-09-14T21:42:34.137Z,17.32
2018-09-14T21:45:02.355Z,17.28
2018-09-14T21:47:30.798Z,17.30
2018-09-14T21:49:59.257Z,17.15
2018-09-14T21:52:27.530Z,17.19
2018-09-14T21:54:55.720Z,17.07
2018-09-14T21:57:23.934Z,17.08
2018-09-14T21:59:52.517Z,17.01
2018-09-14T22:02:21.031Z,17.07
2018-09-14T22:04:49.397Z,17.07
2018-09-14T22:07:17.581Z,17.10
2018-09-14T22:09:45.761Z,17.07
2018-09-14T22:12:13.962Z,17.05
2018-09-14T22:14:42.170Z,17.03
2018-09-14T22:17:10.656Z,17.02
2018-09-14T22:19:38.849Z,17.02
2018-09-14T22:22:07.242Z,17.02
2018-09-14T22:24:35.261Z,17.01
2018-09-14T22:27:03.467Z,17.18
2018-09-14T22:29:31.621Z,17.30
2018-09-14T22:31:59.797Z,17.35
2018-09-14T22:34:28.065Z,17.34
2018-09-14T22:36:56.237Z,17.37
2018-09-14T22:39:24.626Z,17.13
2018-09-14T22:41:52.824Z,17.04
2018-09-14T22:44:21.055Z,16.97
2018-09-14T22:46:49.232Z,16.85
2018-09-14T22:49:18.288Z,16.83
2018-09-14T22:51:47.076Z,16.77
2018-09-14T22:54:15.383Z,16.70
2018-09-14T22:56:43.966Z,16.70
2018-09-14T22:59:12.132Z,16.40
2018-09-14T23:01:40.308Z,16.34
2018-09-14T23:04:08.613Z,16.17
2018-09-14T23:06:36.859Z,16.15
2018-09-14T23:09:07.242Z,16.11
2018-09-14T23:11:35.696Z,16.36
2018-09-14T23:14:03.913Z,16.43
2018-09-14T23:16:32.085Z,16.52
2018-09-14T23:19:00.325Z,16.57
2018-09-14T23:21:28.481Z,16.29
2018-09-14T23:23:56.749Z,16.37
2018-09-14T23:26:25.293Z,16.45
2018-09-14T23:28:53.612Z,16.53
2018-09-14T23:31:21.853Z,16.47
2018-09-14T23:33:50.078Z,16.44
2018-09-14T23:36:18.596Z,16.42
2018-09-14T23:38:46.807Z,16.42
2018-09-14T23:41:15.000Z,16.38
2018-09-14T23:43:43.271Z,16.37
2018-09-14T23:46:11.450Z,16.39
2018-09-14T23:48:39.686Z,16.43
2018-09-14T23:51:07.935Z,16.34
2018-09-14T23:53:36.162Z,16.28
2018-09-14T23:56:04.563Z,16.14
2018-09-14T23:58:33.113Z,16.06
